Time;durP1;ratioP1;P1;durP2;ratioP2;P2;SDS_P1;SDS_P2;PMS_P1;PMS_P2;Temp;Humidity;BMP_temperature;BMP_pressure;BME280_temperature;BME280_humidity;BME280_pressure;Samples;Min_cycle;Max_cycle;Signal;HPM_P1;HPM_P2
2023/04/15 00:00:57;;;;;;;9.73;5.38;;;;;;;9.48;79.85;100816.19;6131327;23;20500;-67
2023/04/15 00:03:24;;;;;;;11.95;5.75;;;;;;;9.48;78.24;100812.75;6139076;23;20518;-67
2023/04/15 00:05:51;;;;;;;10.73;5.63;;;;;;;9.44;79.83;100821.84;6110949;23;20036;-66
2023/04/15 00:08:17;;;;;;;10.15;5.35;;;;;;;9.40;78.32;100813.44;6143918;23;20029;-66
2023/04/15 00:10:45;;;;;;;9.35;5.30;;;;;;;9.39;78.67;100817.03;6118746;23;20495;-66
2023/04/15 00:13:12;;;;;;;6.90;4.53;;;;;;;9.37;78.81;100823.34;6136188;23;20494;-66
2023/04/15 00:15:38;;;;;;;11.88;6.10;;;;;;;9.37;79.14;100816.34;6138459;23;20025;-67
2023/04/15 00:18:06;;;;;;;12.80;5.78;;;;;;;9.36;79.50;100812.06;6132271;23;20032;-67
2023/04/15 00:20:33;;;;;;;9.38;5.53;;;;;;;9.36;79.24;100813.88;6145910;23;20453;-67
2023/04/15 00:23:01;;;;;;;8.02;5.10;;;;;;;9.33;80.57;100820.22;6139105;23;20029;-67
2023/04/15 00:25:28;;;;;;;7.47;5.43;;;;;;;9.32;80.36;100817.72;6146137;23;20092;-68
2023/04/15 00:27:54;;;;;;;11.00;5.60;;;;;;;9.24;80.17;100802.72;6145430;23;20065;-67
2023/04/15 00:30:21;;;;;;;8.50;5.60;;;;;;;9.24;80.34;100810.56;6128033;23;20029;-67
2023/04/15 00:32:48;;;;;;;10.15;5.63;;;;;;;9.25;80.58;100818.28;6146355;23;20481;-67
2023/04/15 00:35:15;;;;;;;8.82;5.10;;;;;;;9.17;80.51;100812.88;6137906;23;20025;-67
2023/04/15 00:37:41;;;;;;;11.75;5.90;;;;;;;9.21;81.23;100816.06;6145918;23;20033;-67
2023/04/15 00:40:12;;;;;;;9.68;5.30;;;;;;;9.20;80.54;100817.84;6113850;23;20109;-69
2023/04/15 00:42:39;;;;;;;10.50;5.17;;;;;;;9.22;80.71;100812.50;6115436;23;20053;-67
2023/04/15 00:45:07;;;;;;;8.00;5.32;;;;;;;9.18;81.30;100809.31;6114816;23;20589;-67
2023/04/15 00:47:36;;;;;;;7.28;5.20;;;;;;;9.18;81.26;100816.34;6112440;23;20037;-66
2023/04/15 00:50:02;;;;;;;7.47;5.22;;;;;;;9.17;80.94;100810.25;6146380;23;20423;-67
2023/04/15 00:52:29;;;;;;;8.63;5.35;;;;;;;9.16;81.16;100819.09;6138771;23;20461;-66
2023/04/15 00:54:56;;;;;;;9.38;4.75;;;;;;;9.14;81.91;100814.97;6147222;23;20057;-66
2023/04/15 00:57:22;;;;;;;8.93;5.30;;;;;;;9.12;83.63;100812.50;6131882;23;20040;-68
2023/04/15 00:59:51;;;;;;;11.32;4.60;;;;;;;9.12;81.98;100817.72;6140870;23;20025;-66
2023/04/15 01:02:18;;;;;;;9.23;5.15;;;;;;;9.11;82.61;100816.06;6145721;23;20377;-66
2023/04/15 01:04:45;;;;;;;7.65;5.18;;;;;;;9.09;83.26;100817.97;6138176;23;20029;-67
2023/04/15 01:07:11;;;;;;;9.27;5.38;;;;;;;9.11;82.73;100818.66;6145557;23;20025;-69
2023/04/15 01:09:37;;;;;;;9.98;5.05;;;;;;;9.08;83.52;100826.81;6144850;23;20033;-68
2023/04/15 01:12:06;;;;;;;11.50;5.50;;;;;;;9.01;84.26;100821.28;6140718;23;20320;-66
2023/04/15 01:14:32;;;;;;;7.68;4.97;;;;;;;9.05;84.53;100827.06;6134573;23;20052;-66
2023/04/15 01:16:59;;;;;;;8.00;5.20;;;;;;;9.04;83.95;100823.63;6146890;23;20025;-66
2023/04/15 01:19:26;;;;;;;10.80;6.28;;;;;;;9.01;84.55;100826.50;6146170;23;20381;-66
2023/04/15 01:21:53;;;;;;;10.75;5.65;;;;;;;9.01;83.93;100826.50;6138510;23;20109;-66
2023/04/15 01:24:20;;;;;;;8.30;4.60;;;;;;;9.00;83.55;100830.09;6144745;23;20399;-65
2023/04/15 01:26:48;;;;;;;10.50;5.50;;;;;;;8.99;83.66;100832.84;6129777;23;20037;-67
2023/04/15 01:29:15;;;;;;;8.93;5.57;;;;;;;8.97;84.86;100824.31;6144488;23;20128;-67
2023/04/15 01:31:50;;;;;;;9.07;5.57;;;;;;;8.97;85.91;100829.53;6136220;23;20029;-65
2023/04/15 01:34:17;;;;;;;7.05;4.15;;;;;;;8.91;84.04;100825.69;6145479;23;20392;-65
2023/04/15 01:36:43;;;;;;;10.43;5.38;;;;;;;8.90;86.76;100813.56;6146838;23;20021;-66
2023/04/15 01:39:10;;;;;;;7.97;5.13;;;;;;;8.88;85.82;100820.72;6133349;23;20025;-67
2023/04/15 01:41:37;;;;;;;8.18;4.82;;;;;;;8.86;86.52;100822.63;6115263;23;20108;-67
2023/04/15 01:44:03;;;;;;;8.63;5.70;;;;;;;8.86;87.99;100828.72;6135238;23;20057;-67
2023/04/15 01:46:30;;;;;;;9.02;5.82;;;;;;;8.84;87.96;100821.94;6146440;23;20033;-68
2023/04/15 01:48:56;;;;;;;10.38;5.68;;;;;;;8.78;88.22;100817.25;6139453;23;20062;-66
2023/04/15 01:51:23;;;;;;;9.55;5.32;;;;;;;8.79;90.02;100824.97;6145698;23;20033;-68
2023/04/15 01:53:51;;;;;;;7.93;5.10;;;;;;;8.76;90.63;100827.88;6140802;23;20036;-69
2023/04/15 01:56:17;;;;;;;7.22;4.03;;;;;;;8.80;87.17;100825.78;6106063;23;20079;-68
2023/04/15 01:58:44;;;;;;;11.35;5.05;;;;;;;8.73;90.64;100820.28;6144296;23;20369;-65
2023/04/15 02:01:11;;;;;;;8.82;5.20;;;;;;;8.75;89.41;100826.19;6138688;23;20029;-67
2023/04/15 02:03:38;;;;;;;9.73;5.70;;;;;;;8.74;90.95;100827.16;6146359;23;20467;-67
2023/04/15 02:06:05;;;;;;;9.45;5.10;;;;;;;8.71;91.75;100828.25;6138258;23;20092;-67
2023/04/15 02:08:31;;;;;;;6.88;4.50;;;;;;;8.67;91.40;100826.88;6137754;23;20029;-66
2023/04/15 02:10:58;;;;;;;7.25;4.45;;;;;;;8.68;91.35;100828.53;6146595;23;20025;-66
2023/04/15 02:13:24;;;;;;;8.68;5.10;;;;;;;8.64;93.10;100829.75;6137882;23;20360;-67
2023/04/15 02:15:51;;;;;;;8.27;5.20;;;;;;;8.66;94.30;100830.47;6146231;23;20389;-65
2023/04/15 02:18:18;;;;;;;8.32;4.82;;;;;;;8.55;93.26;100819.28;6137598;23;20057;-68
2023/04/15 02:20:45;;;;;;;7.32;5.07;;;;;;;8.63;93.11;100835.13;6141016;23;20021;-69
2023/04/15 02:23:12;;;;;;;9.23;5.60;;;;;;;8.62;94.45;100834.28;6132989;23;20532;-66
2023/04/15 02:25:38;;;;;;;8.30;5.13;;;;;;;8.58;95.45;100838.13;6146704;23;20025;-66
2023/04/15 02:28:05;;;;;;;7.80;3.97;;;;;;;8.60;93.32;100838.81;6148210;23;20029;-66
2023/04/15 02:30:32;;;;;;;7.95;5.13;;;;;;;8.60;95.94;100841.44;6134138;23;20375;-67
2023/04/15 02:33:00;;;;;;;7.20;5.32;;;;;;;8.57;96.50;100844.31;6119296;23;20543;-65
2023/04/15 02:35:26;;;;;;;10.30;5.32;;;;;;;8.55;95.19;100846.25;6107996;23;20022;-67
2023/04/15 02:37:53;;;;;;;10.30;4.95;;;;;;;8.56;94.22;100847.88;6138388;23;20049;-66
2023/04/15 02:40:20;;;;;;;8.48;5.38;;;;;;;8.53;96.33;100853.41;6142055;23;20036;-68
2023/04/15 02:42:47;;;;;;;8.35;5.57;;;;;;;8.51;97.69;100858.75;6140289;23;20052;-67
2023/04/15 02:45:13;;;;;;;7.97;5.00;;;;;;;8.48;98.31;100859.00;6146855;23;20448;-72
2023/04/15 02:47:40;;;;;;;8.40;4.82;;;;;;;8.49;97.36;100855.44;6128397;23;20016;-69
2023/04/15 02:50:08;;;;;;;8.30;5.30;;;;;;;8.50;96.25;100862.31;6159901;23;20025;-70
2023/04/15 02:52:35;;;;;;;9.20;5.55;;;;;;;8.45;98.54;100858.47;6162123;23;20032;-71
2023/04/15 02:55:03;;;;;;;10.13;6.07;;;;;;;8.41;100.00;100857.00;6158511;23;20031;-70
2023/04/15 02:57:29;;;;;;;10.43;5.55;;;;;;;8.39;99.77;100859.78;6148687;23;20025;-71
2023/04/15 02:59:56;;;;;;;6.80;4.80;;;;;;;8.41;97.95;100862.25;6141916;23;20030;-71
2023/04/15 03:02:23;;;;;;;8.75;5.88;;;;;;;8.40;100.00;100863.22;6144289;23;20029;-71
2023/04/15 03:04:50;;;;;;;10.98;5.53;;;;;;;8.41;99.78;100864.84;6135593;23;20048;-71
2023/04/15 03:07:17;;;;;;;9.85;5.57;;;;;;;8.41;100.00;100863.13;6147846;23;20100;-70
2023/04/15 03:09:44;;;;;;;9.07;5.45;;;;;;;8.39;100.00;100866.78;6139742;23;20031;-71
2023/04/15 03:12:11;;;;;;;9.80;5.72;;;;;;;8.35;100.00;100874.06;6146816;23;20052;-70
2023/04/15 03:14:37;;;;;;;8.30;5.50;;;;;;;8.37;100.00;100863.47;6146511;23;20061;-71
2023/04/15 03:17:04;;;;;;;8.70;5.88;;;;;;;8.35;100.00;100871.47;6133135;23;20029;-72
2023/04/15 03:19:30;;;;;;;7.32;4.90;;;;;;;8.38;99.11;100872.97;6139492;23;20104;-71
2023/04/15 03:21:57;;;;;;;9.68;5.82;;;;;;;8.35;100.00;100874.06;6138158;23;20563;-71
2023/04/15 03:24:23;;;;;;;10.57;6.15;;;;;;;8.35;100.00;100873.22;6145240;23;20022;-73
2023/04/15 03:26:50;;;;;;;6.95;4.97;;;;;;;8.36;100.00;100880.94;6138326;23;20029;-73
2023/04/15 03:29:16;;;;;;;8.93;5.68;;;;;;;8.36;100.00;100877.50;6144448;23;20033;-72
2023/04/15 03:31:43;;;;;;;11.55;5.93;;;;;;;8.31;100.00;100875.25;6139182;23;20064;-72
2023/04/15 03:34:09;;;;;;;10.65;6.10;;;;;;;8.24;100.00;100882.81;6133248;23;20476;-73
2023/04/15 03:36:36;;;;;;;9.43;6.20;;;;;;;8.23;100.00;100886.41;6146862;23;20026;-71
2023/04/15 03:39:03;;;;;;;9.95;6.45;;;;;;;8.21;100.00;100888.31;6139340;23;20033;-71
2023/04/15 03:41:29;;;;;;;11.77;6.43;;;;;;;8.20;100.00;100893.66;6145372;23;20080;-71
2023/04/15 03:43:56;;;;;;;10.77;6.35;;;;;;;8.14;100.00;100891.56;6135500;23;20241;-70
2023/04/15 03:46:22;;;;;;;10.13;5.95;;;;;;;8.16;100.00;100889.66;6137244;23;20109;-70
2023/04/15 03:48:49;;;;;;;12.18;7.03;;;;;;;8.14;100.00;100889.78;6144572;23;20065;-71
2023/04/15 03:51:16;;;;;;;10.68;6.03;;;;;;;8.12;100.00;100892.50;6137313;23;20364;-70
2023/04/15 03:53:42;;;;;;;8.38;6.18;;;;;;;8.14;100.00;100888.94;6147153;23;20112;-71
2023/04/15 03:56:08;;;;;;;10.52;6.65;;;;;;;8.10;100.00;100894.41;6137623;23;20036;-71
2023/04/15 03:58:35;;;;;;;9.13;5.85;;;;;;;8.06;100.00;100892.19;6141901;23;20514;-72
2023/04/15 04:01:02;;;;;;;9.40;5.95;;;;;;;8.07;100.00;100896.47;6141782;23;20029;-71
2023/04/15 04:03:28;;;;;;;8.80;5.38;;;;;;;8.06;100.00;100908.69;6137844;23;20668;-71
2023/04/15 04:05:55;;;;;;;10.18;5.88;;;;;;;8.04;100.00;100902.78;6146284;23;20037;-71
2023/04/15 04:08:22;;;;;;;10.23;6.43;;;;;;;8.03;100.00;100905.50;6138712;23;20096;-72
2023/04/15 04:10:48;;;;;;;9.35;6.60;;;;;;;8.02;100.00;100911.69;6146915;23;20037;-71
2023/04/15 04:13:15;;;;;;;8.85;5.70;;;;;;;8.00;100.00;100905.78;6139063;23;20444;-71
2023/04/15 04:15:41;;;;;;;8.00;6.38;;;;;;;8.03;100.00;100913.34;6146723;23;20021;-73
2023/04/15 04:18:08;;;;;;;9.05;6.25;;;;;;;8.02;100.00;100917.75;6147648;23;20455;-73
2023/04/15 04:20:34;;;;;;;11.93;6.60;;;;;;;8.00;100.00;100922.28;6139510;23;20341;-73
2023/04/15 04:23:01;;;;;;;11.50;6.53;;;;;;;7.98;100.00;100926.78;6139704;23;20036;-73
2023/04/15 04:25:27;;;;;;;9.68;6.63;;;;;;;7.98;100.00;100926.78;6133746;23;20021;-72
2023/04/15 04:27:54;;;;;;;10.52;7.03;;;;;;;8.01;100.00;100936.16;6146626;23;20102;-73
2023/04/15 04:30:21;;;;;;;11.85;7.15;;;;;;;8.02;100.00;100936.03;6137430;23;20039;-72
2023/04/15 04:32:48;;;;;;;10.35;6.05;;;;;;;8.00;100.00;100945.78;6147272;23;20048;-72
2023/04/15 04:35:15;;;;;;;11.95;6.72;;;;;;;8.00;100.00;100942.34;6145367;23;20037;-72
2023/04/15 04:37:42;;;;;;;9.65;6.70;;;;;;;7.97;100.00;100938.19;6135529;23;20516;-73
2023/04/15 04:40:09;;;;;;;12.10;7.15;;;;;;;7.99;100.00;100943.28;6141154;23;20025;-73
2023/04/15 04:42:36;;;;;;;10.85;6.78;;;;;;;7.98;100.00;100947.69;6139515;23;20073;-73
2023/04/15 04:45:06;;;;;;;11.07;7.93;;;;;;;7.96;100.00;100943.53;6146354;23;20072;-73
2023/04/15 04:47:32;;;;;;;10.65;7.13;;;;;;;7.95;100.00;100952.34;6139907;23;20087;-72
2023/04/15 04:49:59;;;;;;;10.38;7.20;;;;;;;7.91;100.00;100954.38;6145011;23;20036;-73
2023/04/15 04:52:25;;;;;;;9.05;6.65;;;;;;;7.92;100.00;100959.47;6139413;23;20118;-72
2023/04/15 04:54:52;;;;;;;8.77;7.05;;;;;;;7.91;100.00;100970.03;6135546;23;20022;-72
2023/04/15 04:57:18;;;;;;;10.23;6.72;;;;;;;7.88;100.00;100971.13;6147208;23;20033;-73
2023/04/15 04:59:45;;;;;;;9.98;6.60;;;;;;;7.87;100.00;100969.47;6141414;23;20028;-73
2023/04/15 05:02:12;;;;;;;11.63;6.97;;;;;;;7.87;100.00;100979.09;6147234;23;20072;-72
2023/04/15 05:04:40;;;;;;;12.48;7.07;;;;;;;7.83;100.00;100978.50;6137627;23;20029;-72
2023/04/15 05:07:07;;;;;;;9.82;6.63;;;;;;;7.81;100.00;100985.63;6114839;23;20033;-73
2023/04/15 05:09:35;;;;;;;10.88;7.32;;;;;;;7.80;100.00;100991.81;6147435;23;20105;-73
2023/04/15 05:12:03;;;;;;;9.80;5.90;;;;;;;7.80;100.00;100983.13;6140480;23;20108;-74
2023/04/15 05:14:31;;;;;;;11.43;7.78;;;;;;;7.78;100.00;100985.03;6147413;23;20021;-73
2023/04/15 05:16:57;;;;;;;11.70;6.78;;;;;;;7.80;100.00;100993.56;6140384;23;20029;-72
2023/04/15 05:19:24;;;;;;;10.18;6.80;;;;;;;7.82;100.00;100997.75;6141186;23;20033;-71
2023/04/15 05:21:51;;;;;;;9.90;6.72;;;;;;;7.85;100.00;100999.28;6136801;23;20025;-73
2023/04/15 05:24:17;;;;;;;10.43;6.93;;;;;;;7.85;100.00;101002.72;6147388;23;20437;-72
2023/04/15 05:26:44;;;;;;;6.43;4.85;;;;;;;7.89;100.00;101008.50;6147075;23;20467;-73
2023/04/15 05:29:10;;;;;;;11.88;7.82;;;;;;;7.93;100.00;101008.13;6137843;23;20018;-72
2023/04/15 05:31:37;;;;;;;9.38;6.82;;;;;;;7.91;100.00;101019.66;6143280;23;20055;-74
2023/04/15 05:34:04;;;;;;;11.15;7.03;;;;;;;7.87;100.00;101016.47;6131066;23;20036;-72
2023/04/15 05:36:30;;;;;;;12.23;7.07;;;;;;;7.88;100.00;101015.53;6145815;23;20026;-73
2023/04/15 05:38:57;;;;;;;10.48;7.57;;;;;;;7.86;100.00;101020.06;6140594;23;20029;-74
2023/04/15 05:41:24;;;;;;;11.02;7.20;;;;;;;7.87;100.00;101023.47;6120309;23;20029;-73
2023/04/15 05:43:50;;;;;;;10.63;7.25;;;;;;;7.92;100.00;101023.94;6147534;23;20047;-72
2023/04/15 05:46:20;;;;;;;8.60;6.03;;;;;;;7.99;100.00;101027.72;6109912;23;20079;-73
2023/04/15 05:48:47;;;;;;;11.43;7.25;;;;;;;8.06;100.00;101035.91;6140956;23;20036;-72
2023/04/15 05:51:13;;;;;;;12.65;8.10;;;;;;;8.12;100.00;101035.38;6138708;23;20025;-73
2023/04/15 05:53:40;;;;;;;10.32;7.32;;;;;;;8.18;100.00;101034.06;6147097;23;20035;-73
2023/04/15 05:56:07;;;;;;;14.85;7.85;;;;;;;8.16;100.00;101034.19;6136368;23;20021;-72
2023/04/15 05:58:33;;;;;;;12.68;8.10;;;;;;;8.21;100.00;101039.03;6145162;23;20333;-72
2023/04/15 06:01:00;;;;;;;11.55;8.43;;;;;;;8.29;100.00;101036.59;6141428;23;20471;-71
2023/04/15 06:03:26;;;;;;;9.20;6.55;;;;;;;8.35;100.00;101043.97;6129061;23;20032;-71
2023/04/15 06:05:53;;;;;;;11.40;7.95;;;;;;;8.39;100.00;101049.75;6146223;23;20021;-70
2023/04/15 06:08:20;;;;;;;12.27;7.95;;;;;;;8.46;100.00;101057.00;6139106;23;20029;-73
2023/04/15 06:10:46;;;;;;;10.82;7.80;;;;;;;8.51;100.00;101065.28;6146677;23;20499;-72
2023/04/15 06:13:13;;;;;;;9.77;6.38;;;;;;;8.60;100.00;101066.31;6139553;23;20087;-71
2023/04/15 06:15:40;;;;;;;13.43;8.15;;;;;;;8.69;100.00;101076.00;6138537;23;20041;-73
2023/04/15 06:18:06;;;;;;;8.95;6.32;;;;;;;8.76;100.00;101075.50;6142088;23;20029;-72
2023/04/15 06:20:33;;;;;;;12.90;7.05;;;;;;;8.82;100.00;101085.44;6139547;23;20029;-73
2023/04/15 06:22:59;;;;;;;13.07;7.78;;;;;;;8.86;100.00;101079.84;6147513;23;20021;-72
2023/04/15 06:25:26;;;;;;;12.35;8.45;;;;;;;8.90;100.00;101088.25;6137411;23;20025;-73
2023/04/15 06:27:52;;;;;;;10.60;6.03;;;;;;;8.94;100.00;101089.66;6142874;23;20787;-72
2023/04/15 06:30:19;;;;;;;12.23;8.80;;;;;;;8.97;100.00;101099.03;6130040;23;20029;-72
2023/04/15 06:32:48;;;;;;;10.77;7.53;;;;;;;8.98;100.00;101091.06;6146762;23;20044;-71
2023/04/15 06:35:14;;;;;;;9.85;7.05;;;;;;;9.02;100.00;101095.06;6146899;23;20026;-73
2023/04/15 06:37:41;;;;;;;12.73;7.78;;;;;;;9.00;100.00;101094.38;6137610;23;20026;-73
2023/04/15 06:40:08;;;;;;;10.32;7.40;;;;;;;9.07;100.00;101105.13;6146503;23;20029;-75
2023/04/15 06:42:37;;;;;;;11.00;6.60;;;;;;;9.13;100.00;101107.22;6131876;23;20029;-73
2023/04/15 06:45:05;;;;;;;9.80;7.20;;;;;;;9.16;100.00;101111.41;6141892;23;20026;-72
2023/04/15 06:47:32;;;;;;;12.38;6.38;;;;;;;9.20;100.00;101118.03;6138590;23;20497;-73
2023/04/15 06:49:58;;;;;;;9.98;6.18;;;;;;;9.23;100.00;101126.44;6146827;23;20025;-72
2023/04/15 06:52:25;;;;;;;7.40;5.13;;;;;;;9.26;100.00;101133.22;6146811;23;20025;-72
2023/04/15 06:54:51;;;;;;;9.27;5.82;;;;;;;9.25;100.00;101129.78;6138630;23;20108;-72
2023/04/15 06:57:18;;;;;;;11.30;7.13;;;;;;;9.30;100.00;101131.97;6137537;23;20025;-72
2023/04/15 06:59:44;;;;;;;10.90;7.43;;;;;;;9.32;100.00;101137.91;6134736;23;20029;-73
2023/04/15 07:02:13;;;;;;;13.15;8.18;;;;;;;9.32;100.00;101151.00;6144557;23;20407;-71
2023/04/15 07:04:39;;;;;;;10.80;6.85;;;;;;;9.27;100.00;101145.31;6113049;23;20029;-73
2023/04/15 07:07:06;;;;;;;12.25;7.65;;;;;;;9.26;100.00;101152.34;6146689;23;20052;-72
2023/04/15 07:09:33;;;;;;;10.30;6.55;;;;;;;9.34;100.00;101146.47;6141807;23;20822;-72
2023/04/15 07:11:59;;;;;;;13.57;8.68;;;;;;;9.37;100.00;101156.69;6132186;23;20026;-73
2023/04/15 07:14:26;;;;;;;11.00;7.30;;;;;;;9.40;100.00;101161.66;6145316;23;20108;-70
2023/04/15 07:16:53;;;;;;;8.73;5.95;;;;;;;9.46;100.00;101165.53;6113601;23;20025;-68
2023/04/15 07:19:19;;;;;;;10.02;6.60;;;;;;;9.49;100.00;101160.88;6145276;23;20359;-72
2023/04/15 07:21:46;;;;;;;9.18;5.53;;;;;;;9.60;100.00;101161.75;6138530;23;20026;-71
2023/04/15 07:24:16;;;;;;;10.27;6.60;;;;;;;9.60;100.00;101172.22;6138068;23;20026;-71
2023/04/15 07:26:43;;;;;;;12.35;5.45;;;;;;;9.65;100.00;101176.09;6141432;23;20444;-73
2023/04/15 07:29:10;;;;;;;8.60;4.80;;;;;;;9.66;98.85;101174.31;6140584;23;20030;-74
2023/04/15 07:31:37;;;;;;;8.43;5.18;;;;;;;9.75;98.87;101180.56;6145940;23;20571;-73
2023/04/15 07:34:04;;;;;;;8.13;5.40;;;;;;;9.79;100.00;101187.19;6138997;23;20080;-69
2023/04/15 07:36:30;;;;;;;8.35;5.47;;;;;;;9.81;97.20;101185.28;6146926;23;20108;-73
2023/04/15 07:38:57;;;;;;;6.97;4.57;;;;;;;9.87;95.02;101188.19;6134320;23;20117;-71
2023/04/15 07:41:24;;;;;;;7.72;4.95;;;;;;;9.97;96.57;101197.88;6141642;23;20036;-69
2023/04/15 07:43:51;;;;;;;9.45;4.78;;;;;;;10.01;93.74;101197.47;6148556;23;20618;-72
2023/04/15 07:46:17;;;;;;;6.68;4.50;;;;;;;10.06;94.89;101195.28;6138850;23;20035;-71
2023/04/15 07:48:44;;;;;;;7.20;4.25;;;;;;;10.15;94.32;101198.06;6148937;23;20060;-71
2023/04/15 07:51:11;;;;;;;7.60;5.07;;;;;;;10.22;95.23;101202.63;6139909;23;20104;-71
2023/04/15 07:53:38;;;;;;;6.13;4.38;;;;;;;10.32;95.34;101209.72;6145561;23;20035;-73
2023/04/15 07:56:04;;;;;;;8.57;5.80;;;;;;;10.37;93.88;101197.88;6139963;23;20032;-71
2023/04/15 07:58:31;;;;;;;10.73;6.13;;;;;;;10.45;95.32;101211.13;6121690;23;20030;-72
2023/04/15 08:00:59;;;;;;;8.65;5.53;;;;;;;10.51;96.01;101208.94;6146974;23;20052;-74
2023/04/15 08:03:26;;;;;;;7.57;5.15;;;;;;;10.62;93.47;101214.03;6140358;23;20025;-72
2023/04/15 08:05:53;;;;;;;9.13;5.07;;;;;;;10.74;92.16;101223.44;6144886;23;20057;-71
2023/04/15 08:08:21;;;;;;;9.93;5.18;;;;;;;10.78;90.34;101222.22;6138630;23;20757;-72
2023/04/15 08:10:47;;;;;;;9.50;6.13;;;;;;;10.86;90.03;101222.34;6148892;23;20025;-73
2023/04/15 08:13:17;;;;;;;10.18;5.22;;;;;;;10.91;88.69;101228.97;6112804;23;20057;-73
2023/04/15 08:15:43;;;;;;;5.88;4.07;;;;;;;11.02;86.08;101226.22;6147068;23;20053;-73
2023/04/15 08:18:10;;;;;;;7.43;4.78;;;;;;;11.14;89.12;101222.44;6143886;23;20469;-72
2023/04/15 08:20:37;;;;;;;8.38;5.22;;;;;;;11.18;89.45;101228.25;6134545;23;20052;-73
2023/04/15 08:23:03;;;;;;;9.80;5.35;;;;;;;11.23;85.11;101231.28;6147596;23;20544;-73
2023/04/15 08:25:30;;;;;;;11.98;4.78;;;;;;;11.29;84.66;101228.13;6138488;23;20025;-73
2023/04/15 08:27:57;;;;;;;7.78;4.72;;;;;;;11.39;85.52;101218.41;6148124;23;20089;-72
2023/04/15 08:30:24;;;;;;;7.78;4.10;;;;;;;11.42;82.74;101225.16;6109780;23;20026;-69
2023/04/15 08:32:50;;;;;;;5.60;3.90;;;;;;;11.45;82.85;101230.16;6140801;23;20025;-72
2023/04/15 08:35:17;;;;;;;6.10;3.95;;;;;;;11.52;81.89;101231.22;6141041;23;20029;-72
2023/04/15 08:37:43;;;;;;;6.05;4.07;;;;;;;11.62;82.56;101229.41;6138278;23;20026;-72
2023/04/15 08:40:10;;;;;;;6.85;4.13;;;;;;;11.75;82.24;101239.59;6146255;23;20029;-73
2023/04/15 08:42:42;;;;;;;4.68;3.10;;;;;;;11.85;79.68;101253.50;6138400;23;20067;-72
2023/04/15 08:45:10;;;;;;;6.68;3.92;;;;;;;11.90;78.80;101254.91;6145334;23;20072;-73
2023/04/15 08:47:38;;;;;;;4.68;3.20;;;;;;;11.91;77.39;101252.16;6138963;23;20065;-72
2023/04/15 08:50:08;;;;;;;7.25;3.90;;;;;;;11.95;76.95;101264.03;6119661;23;20029;-72
2023/04/15 08:52:35;;;;;;;5.50;3.25;;;;;;;11.91;76.65;101254.78;6145643;23;20047;-73
2023/04/15 08:55:03;;;;;;;4.50;2.90;;;;;;;12.03;77.93;101260.69;6139701;23;20026;-73
2023/04/15 08:57:32;;;;;;;6.13;3.45;;;;;;;12.10;77.92;101259.13;6140392;23;20025;-73
2023/04/15 09:00:00;;;;;;;;;;;;;;;12.11;77.45;101267.84;6132935;23;20415;-69
2023/04/15 09:02:30;;;;;;;5.65;3.22;;;;;;;12.18;76.59;101259.22;6145259;23;20328;-71
2023/04/15 09:04:57;;;;;;;6.60;3.13;;;;;;;12.18;77.14;101279.44;6113192;23;20031;-72
2023/04/15 09:07:23;;;;;;;5.22;3.42;;;;;;;12.25;77.19;101276.09;6145385;23;20033;-70
2023/04/15 09:09:51;;;;;;;5.25;3.47;;;;;;;12.31;78.74;101277.31;6146717;23;20032;-71
2023/04/15 09:12:17;;;;;;;5.53;3.78;;;;;;;12.41;78.89;101279.88;6129012;23;20140;-72
2023/04/15 09:14:48;;;;;;;6.32;3.83;;;;;;;12.48;76.20;101280.94;6116940;23;20108;-72
2023/04/15 09:17:18;;;;;;;5.50;3.63;;;;;;;12.51;75.12;101280.66;6137568;23;20029;-71
2023/04/15 09:19:45;;;;;;;5.05;2.90;;;;;;;12.62;75.78;101284.88;6145417;23;20638;-73
2023/04/15 09:22:12;;;;;;;5.18;3.60;;;;;;;12.74;75.48;101288.09;6135550;23;20095;-71
2023/04/15 09:24:41;;;;;;;6.45;3.63;;;;;;;12.83;74.97;101295.94;6142914;23;20029;-70
2023/04/15 09:27:07;;;;;;;5.43;3.50;;;;;;;12.90;73.12;101296.19;6141284;23;20032;-72
2023/04/15 09:29:34;;;;;;;6.32;3.63;;;;;;;12.99;73.12;101297.09;6135214;23;20033;-72
2023/04/15 09:32:14;;;;;;;4.57;3.22;;;;;;;13.12;71.88;101305.44;6143945;23;20025;-73
2023/04/15 09:34:41;;;;;;;4.78;3.33;;;;;;;13.23;73.03;101307.00;6136907;23;20025;-72
2023/04/15 09:37:09;;;;;;;5.72;3.30;;;;;;;13.27;70.77;101297.84;6145563;23;20053;-72
2023/04/15 09:39:49;;;;;;;4.93;3.53;;;;;;;13.49;71.17;101299.19;6127129;23;20372;-71
2023/04/15 09:42:22;;;;;;;4.22;2.83;;;;;;;13.57;72.37;101301.88;6142560;23;20533;-70
2023/04/15 09:44:51;;;;;;;6.63;3.88;;;;;;;13.69;70.48;101299.81;6144589;23;20025;-72
2023/04/15 09:47:30;;;;;;;;;;;;;;;13.80;70.89;101311.91;6137380;23;20056;-72
2023/04/15 09:49:59;;;;;;;4.60;3.28;;;;;;;13.89;71.53;101308.31;6145624;23;19975;-71
2023/04/15 09:52:27;;;;;;;4.63;2.55;;;;;;;13.98;70.29;101311.84;6106813;23;20029;-72
2023/04/15 09:54:57;;;;;;;3.80;2.70;;;;;;;14.02;68.69;101316.66;6142078;23;20022;-70
2023/04/15 09:57:24;;;;;;;3.53;2.53;;;;;;;14.06;67.00;101321.63;6137303;23;20065;-69
2023/04/15 09:59:51;;;;;;;4.72;3.10;;;;;;;14.06;66.15;101321.63;6145336;23;20029;-72
2023/04/15 10:02:20;;;;;;;5.72;3.10;;;;;;;14.16;65.51;101317.88;6144529;23;20029;-72
2023/04/15 10:04:47;;;;;;;4.13;2.60;;;;;;;14.33;65.71;101318.78;6141545;23;20354;-71
2023/04/15 10:07:15;;;;;;;4.73;2.80;;;;;;;14.62;66.97;101317.56;6145322;23;20368;-71
2023/04/15 10:09:44;;;;;;;5.68;3.08;;;;;;;14.88;67.72;101327.19;6135639;23;20029;-71
2023/04/15 10:12:11;;;;;;;5.03;3.20;;;;;;;14.87;64.90;101320.28;6146317;23;20658;-71
2023/04/15 10:14:40;;;;;;;5.38;3.58;;;;;;;14.98;63.63;101336.63;6137265;23;20084;-72
2023/04/15 10:17:10;;;;;;;6.35;3.20;;;;;;;15.15;64.92;101326.94;6138098;23;20484;-71
2023/04/15 10:19:37;;;;;;;6.55;3.38;;;;;;;15.36;64.06;101333.53;6135173;23;20026;-71
2023/04/15 10:22:04;;;;;;;3.78;2.83;;;;;;;15.51;63.36;101329.22;6118945;23;20136;-72
2023/04/15 10:24:30;;;;;;;4.82;3.15;;;;;;;15.74;61.70;101336.50;6144513;23;20061;-71
2023/04/15 10:26:58;;;;;;;5.30;3.25;;;;;;;15.98;62.96;101341.75;6137719;23;20204;-72
2023/04/15 10:29:26;;;;;;;5.45;3.28;;;;;;;15.80;60.35;101344.59;6139521;23;20033;-72
2023/04/15 10:31:57;;;;;;;2.95;2.30;;;;;;;15.76;61.53;101348.59;6133457;23;20427;-73
2023/04/15 10:34:24;;;;;;;4.20;2.78;;;;;;;15.52;60.19;101338.81;6144696;23;20032;-71
2023/04/15 10:36:55;;;;;;;3.70;2.67;;;;;;;15.63;60.80;101346.41;6141823;23;20033;-71
2023/04/15 10:39:42;;;;;;;4.78;2.90;;;;;;;15.49;59.79;101355.00;6118321;23;20031;-73
2023/04/15 10:42:14;;;;;;;5.32;2.72;;;;;;;15.44;59.11;101354.66;6144506;23;20076;-72
2023/04/15 10:44:47;;;;;;;5.05;2.67;;;;;;;15.53;59.98;101358.97;6127919;23;20048;-72
2023/04/15 10:47:19;;;;;;;3.38;2.25;;;;;;;15.69;59.55;101349.38;6144339;23;20021;-73
2023/04/15 10:50:00;;;;;;;3.40;2.72;;;;;;;15.91;59.66;101356.63;6139586;23;20065;-73
2023/04/15 10:52:28;;;;;;;4.97;2.38;;;;;;;15.96;58.63;101353.50;6145375;23;20021;-72
2023/04/15 10:55:15;;;;;;;4.57;2.88;;;;;;;16.14;60.13;101348.81;6112682;23;20419;-72
2023/04/15 10:57:42;;;;;;;3.13;2.15;;;;;;;16.09;59.31;101356.47;6138785;23;20068;-73
2023/04/15 11:00:14;;;;;;;3.77;2.43;;;;;;;16.18;57.68;101363.34;6131675;23;20082;-72
2023/04/15 11:02:46;;;;;;;4.15;2.30;;;;;;;16.33;58.04;101358.19;6144875;23;20036;-73
2023/04/15 11:05:15;;;;;;;4.22;2.42;;;;;;;16.47;58.48;101354.00;6144091;23;20072;-73
2023/04/15 11:07:45;;;;;;;3.75;2.30;;;;;;;16.65;56.82;101361.69;6138138;23;20104;-73
2023/04/15 11:10:24;;;;;;;4.45;1.85;;;;;;;16.97;56.79;101357.22;6144585;23;20029;-72
2023/04/15 11:12:53;;;;;;;4.30;2.75;;;;;;;16.97;55.81;101366.03;6129335;23;20036;-72
2023/04/15 11:15:37;;;;;;;3.05;2.20;;;;;;;16.97;57.90;101358.09;6141061;23;20029;-72
2023/04/15 11:18:12;;;;;;;6.63;2.70;;;;;;;16.75;56.91;101350.88;6137172;23;20137;-73
2023/04/15 11:20:40;;;;;;;6.63;2.72;;;;;;;16.61;55.54;101361.22;6143964;23;20031;-72
2023/04/15 11:23:07;;;;;;;;;;;;;;;16.73;56.89;101359.00;6136681;23;20029;-72
2023/04/15 11:25:42;;;;;;;3.53;2.67;;;;;;;16.72;56.77;101370.59;6139427;23;19921;-72
2023/04/15 11:28:10;;;;;;;3.05;2.22;;;;;;;16.67;56.27;101367.63;6138091;23;20029;-72